Las Lenas/Los Molles, Argentina
Current Conditions -  °F | °C
As of 7:00 PM on Friday 19 Dec 2014 (Local Time) from SCIC Reporting Station
Clear Clear  
Wind Chill: 75°   Ceiling: Unl
Heat Index: 75°   Visibility: 6mi
Dew Point: 52°   Wind: 14mph
Humidity: 44%   Direction: 270°W
Pressure: 29.85"   Gusts: NA
Location:  34.97°S, 68.65°W
Report Text: SCIC 192200Z 27012KT CAVOK 24/11 Q1011
Loading
Personal Weather Stations






























Interactive Weather Map New forecast layout! Learn more

10-Day Weather Forecast

Advertisements
Track Severe Weather on mobile